createdAt,value
2023-01-29T00:00:56.744Z,100634.97
2023-01-29T00:06:01.110Z,100629.91
2023-01-29T00:11:04.329Z,100625.03
2023-01-29T00:16:07.377Z,100616.13
2023-01-29T00:21:12.132Z,100620.09
2023-01-29T00:26:15.542Z,100610.38
2023-01-29T00:31:23.599Z,100605.28
2023-01-29T00:36:28.277Z,100609.28
2023-01-29T00:41:50.519Z,100599.69
2023-01-29T00:47:03.348Z,100595.56
2023-01-29T00:52:30.214Z,100599.28
2023-01-29T00:57:34.151Z,100602.41
2023-01-29T01:02:54.892Z,100607.31
2023-01-29T01:07:59.633Z,100598.56
2023-01-29T01:13:03.610Z,100598.19
2023-01-29T01:18:06.781Z,100598.19
2023-01-29T01:23:14.809Z,100593.63
2023-01-29T01:28:17.496Z,100605.28
2023-01-29T01:33:20.209Z,100607.72
2023-01-29T01:38:24.307Z,100604.97
2023-01-29T01:43:26.930Z,100596.09
2023-01-29T01:48:29.588Z,100582.47
2023-01-29T01:53:38.528Z,100572.84
2023-01-29T01:58:43.824Z,100552.16
2023-01-29T02:04:08.426Z,100566.75
2023-01-29T02:09:33.198Z,100567.94
2023-01-29T02:14:38.930Z,100567.97
2023-01-29T02:19:53.309Z,100576.44
2023-01-29T02:25:09.634Z,100589.63
2023-01-29T02:30:18.824Z,100589.50
2023-01-29T02:35:26.993Z,100581.25
2023-01-29T02:40:32.467Z,100588.97
2023-01-29T02:45:44.450Z,100608.91
2023-01-29T02:50:50.960Z,100616.31
2023-01-29T02:55:57.473Z,100615.22
2023-01-29T03:01:04.874Z,100632.03
2023-01-29T03:06:20.644Z,100616.63
2023-01-29T03:11:23.940Z,100608.50
2023-01-29T03:16:32.388Z,100603.72
2023-01-29T03:21:55.217Z,100597.28
2023-01-29T03:27:17.838Z,100589.97
2023-01-29T03:32:23.877Z,100594.31
2023-01-29T03:37:30.456Z,100601.28
2023-01-29T03:42:41.898Z,100597.06
2023-01-29T03:47:48.744Z,100606.97
2023-01-29T03:52:53.168Z,100620.00
2023-01-29T03:57:59.855Z,100611.59
2023-01-29T04:03:09.061Z,100612.09
2023-01-29T04:08:16.473Z,100603.56
2023-01-29T04:13:20.387Z,100592.88
2023-01-29T04:18:26.382Z,100579.88
2023-01-29T04:23:40.983Z,100583.63
2023-01-29T04:28:55.188Z,100571.31
2023-01-29T04:34:06.468Z,100555.88
2023-01-29T04:39:14.298Z,100558.38
2023-01-29T04:44:20.542Z,100566.06
2023-01-29T04:49:32.575Z,100560.88
2023-01-29T04:54:43.678Z,100554.41
2023-01-29T04:59:53.555Z,100532.44
2023-01-29T05:04:58.556Z,100541.94
2023-01-29T05:10:01.482Z,100536.03
2023-01-29T05:15:06.959Z,100542.72
2023-01-29T05:20:13.041Z,100536.94
2023-01-29T05:25:23.995Z,100529.13
2023-01-29T05:30:26.796Z,100519.88
2023-01-29T05:35:31.218Z,100522.66
2023-01-29T05:40:33.929Z,100516.78
2023-01-29T05:45:36.616Z,100521.94
2023-01-29T05:50:40.577Z,100528.50
2023-01-29T05:55:45.175Z,100523.56
2023-01-29T06:00:47.846Z,100522.84
2023-01-29T06:05:51.808Z,100535.56
2023-01-29T06:10:54.391Z,100547.28
2023-01-29T06:15:57.111Z,100545.03
2023-01-29T06:21:03.234Z,100545.41
2023-01-29T06:26:07.855Z,100555.31
2023-01-29T06:31:27.461Z,100572.22
2023-01-29T06:36:35.633Z,100567.28
2023-01-29T06:41:38.238Z,100580.00
2023-01-29T06:46:40.877Z,100587.22
2023-01-29T06:51:44.818Z,100593.38
2023-01-29T06:56:47.436Z,100578.44
2023-01-29T07:01:50.144Z,100571.66
2023-01-29T07:06:54.189Z,100580.44
2023-01-29T07:11:56.843Z,100574.44
2023-01-29T07:16:59.491Z,100579.88
2023-01-29T07:22:03.877Z,100582.69
2023-01-29T07:27:06.438Z,100579.41
2023-01-29T07:32:09.172Z,100573.53
2023-01-29T07:37:13.641Z,100573.78
2023-01-29T07:42:16.280Z,100583.78
2023-01-29T07:47:19.017Z,100565.22
2023-01-29T07:52:22.979Z,100558.50
2023-01-29T07:57:25.971Z,100560.53
2023-01-29T08:02:28.691Z,100555.94
2023-01-29T08:07:32.687Z,100552.84
2023-01-29T08:12:35.424Z,100559.81
2023-01-29T08:17:52.547Z,100566.09
2023-01-29T08:23:02.080Z,100568.75
2023-01-29T08:28:05.306Z,100567.19
2023-01-29T08:33:07.957Z,100568.66
2023-01-29T08:38:11.930Z,100556.94
2023-01-29T08:43:14.916Z,100561.31
2023-01-29T08:48:17.549Z,100556.72
2023-01-29T08:53:31.010Z,100547.78
2023-01-29T08:58:33.727Z,100550.44
2023-01-29T09:03:36.400Z,100555.28
2023-01-29T09:08:40.579Z,100544.94
2023-01-29T09:13:43.264Z,100535.41
2023-01-29T09:18:45.864Z,100539.63
2023-01-29T09:23:49.807Z,100529.97
2023-01-29T09:28:52.391Z,100531.53
2023-01-29T09:33:54.992Z,100519.97
2023-01-29T09:38:58.923Z,100528.88
2023-01-29T09:44:03.676Z,100523.19
2023-01-29T09:49:10.291Z,100510.66
2023-01-29T09:54:18.836Z,100513.03
2023-01-29T09:59:24.292Z,100510.97
2023-01-29T10:04:56.811Z,100506.25
2023-01-29T10:10:14.667Z,100506.97
2023-01-29T10:15:27.093Z,100513.25
2023-01-29T10:20:38.194Z,100502.63
2023-01-29T10:25:42.677Z,100504.56
2023-01-29T10:30:49.381Z,100509.28
2023-01-29T10:35:55.941Z,100517.13
2023-01-29T10:41:09.243Z,100514.84
2023-01-29T10:46:22.556Z,100505.06
2023-01-29T10:51:43.001Z,100490.81
2023-01-29T10:56:55.705Z,100471.31
2023-01-29T11:02:00.064Z,100459.59
2023-01-29T11:07:02.918Z,100448.00
2023-01-29T11:12:12.796Z,100432.91
2023-01-29T11:17:17.168Z,100428.31
2023-01-29T11:22:21.432Z,100433.34
2023-01-29T11:27:29.586Z,100422.75
2023-01-29T11:32:35.224Z,100422.75
2023-01-29T11:37:39.294Z,100420.97
2023-01-29T11:42:43.313Z,100415.78
2023-01-29T11:47:50.184Z,100407.91
2023-01-29T11:52:53.051Z,100399.50
2023-01-29T11:58:52.657Z,100385.75
2023-01-29T12:10:34.000Z,100369.94
2023-01-29T12:15:36.889Z,100364.63
2023-01-29T12:20:42.645Z,100354.00
2023-01-29T12:25:52.920Z,100332.78
2023-01-29T12:31:04.832Z,100316.91
2023-01-29T12:36:12.107Z,100300.75
2023-01-29T12:41:26.274Z,100265.00
2023-01-29T12:46:30.615Z,100261.38
2023-01-29T12:51:38.359Z,100258.91
2023-01-29T12:56:47.036Z,100247.78
2023-01-29T13:01:53.156Z,100234.41
2023-01-29T13:06:59.456Z,100226.91
2023-01-29T13:12:05.093Z,100201.34
2023-01-29T13:17:10.528Z,100195.25
2023-01-29T13:22:18.624Z,100187.72
2023-01-29T13:27:25.861Z,100190.78
2023-01-29T13:32:29.926Z,100191.78
2023-01-29T13:37:34.466Z,100184.63
2023-01-29T13:42:43.849Z,100180.50
2023-01-29T13:47:46.693Z,100183.09
2023-01-29T13:52:54.936Z,100189.53
2023-01-29T13:57:59.731Z,100172.66
2023-01-29T14:04:04.112Z,100170.59
2023-01-29T14:09:55.908Z,100189.97
2023-01-29T14:15:22.230Z,100186.47
2023-01-29T14:20:39.091Z,100185.88
2023-01-29T14:25:47.992Z,100190.47
2023-01-29T14:30:52.588Z,100184.44
2023-01-29T14:35:57.348Z,100179.88
2023-01-29T14:41:10.675Z,100175.03
2023-01-29T14:46:45.517Z,100170.13
2023-01-29T14:51:48.577Z,100170.91
2023-01-29T14:56:58.528Z,100166.03
2023-01-29T15:02:06.643Z,100157.06
2023-01-29T15:07:18.897Z,100171.81
2023-01-29T15:12:26.953Z,100161.50
2023-01-29T15:17:34.146Z,100150.50
2023-01-29T15:22:43.592Z,100158.16
2023-01-29T15:27:46.706Z,100158.34
2023-01-29T15:32:50.936Z,100158.09
2023-01-29T15:38:01.190Z,100148.97
2023-01-29T15:43:03.889Z,100145.63
2023-01-29T15:48:14.282Z,100145.44
2023-01-29T15:53:19.265Z,100138.09
2023-01-29T15:58:24.920Z,100129.00
2023-01-29T16:03:32.105Z,100119.28
2023-01-29T16:08:35.270Z,100122.94
2023-01-29T16:13:42.791Z,100127.28
2023-01-29T16:18:59.593Z,100124.34
2023-01-29T16:24:07.469Z,100121.91
2023-01-29T16:29:12.321Z,100122.38
2023-01-29T16:34:21.772Z,100117.19
2023-01-29T16:39:27.046Z,100108.03
2023-01-29T16:44:34.166Z,100099.56
2023-01-29T16:49:52.649Z,100101.88
2023-01-29T16:55:15.745Z,100091.91
2023-01-29T17:00:23.412Z,100090.47
2023-01-29T17:05:30.512Z,100077.16
2023-01-29T17:10:33.734Z,100073.59
2023-01-29T17:15:38.251Z,100076.50
2023-01-29T17:20:42.332Z,100073.34
2023-01-29T17:25:45.150Z,100066.22
2023-01-29T17:31:00.185Z,100057.06
2023-01-29T17:36:12.428Z,100049.38
2023-01-29T17:41:19.000Z,100039.38
2023-01-29T17:46:22.721Z,100042.66
2023-01-29T17:51:26.935Z,100041.13
2023-01-29T17:56:30.517Z,100051.91
2023-01-29T18:01:33.252Z,100054.53
2023-01-29T18:06:37.448Z,100049.13
2023-01-29T18:11:40.194Z,100048.38
2023-01-29T18:16:43.997Z,100024.22
2023-01-29T18:21:48.185Z,100026.34
2023-01-29T18:26:51.097Z,100026.91
2023-01-29T18:31:54.904Z,100020.28
2023-01-29T18:36:59.715Z,100018.94
2023-01-29T18:42:02.376Z,100006.91
2023-01-29T18:47:05.971Z,99998.97
2023-01-29T18:52:10.074Z,99985.13
2023-01-29T18:58:27.126Z,99971.38
2023-01-29T19:02:35.467Z,99980.41
2023-01-29T19:07:39.530Z,99974.66
2023-01-29T19:12:42.306Z,99969.94
2023-01-29T19:17:45.013Z,99968.91
2023-01-29T19:22:49.202Z,99964.09
2023-01-29T19:27:52.033Z,99947.53
2023-01-29T19:32:54.729Z,99952.69
2023-01-29T19:37:58.785Z,99945.06
2023-01-29T19:43:01.477Z,99954.25
2023-01-29T19:48:04.442Z,99945.09
2023-01-29T19:53:08.481Z,99940.66
2023-01-29T19:58:11.509Z,99916.28
2023-01-29T20:03:14.175Z,99904.47
2023-01-29T20:08:18.453Z,99889.66
2023-01-29T20:13:21.122Z,99886.38
2023-01-29T20:18:24.057Z,99872.41
2023-01-29T20:23:37.612Z,99873.47
2023-01-29T20:28:41.369Z,99848.13
2023-01-29T20:33:44.493Z,99852.19
2023-01-29T20:38:48.615Z,99832.84
2023-01-29T20:43:51.274Z,99827.34
2023-01-29T20:48:54.450Z,99828.91
2023-01-29T20:53:58.504Z,99815.56
2023-01-29T20:59:02.338Z,99812.59
2023-01-29T21:04:05.101Z,99827.66
2023-01-29T21:09:09.425Z,99818.66
2023-01-29T21:14:12.459Z,99788.94
2023-01-29T21:19:15.639Z,99789.50
2023-01-29T21:24:19.830Z,99789.84
2023-01-29T21:29:22.527Z,99799.22
2023-01-29T21:34:25.617Z,99794.06
2023-01-29T21:39:29.672Z,99792.72
2023-01-29T21:44:33.586Z,99767.72
2023-01-29T21:49:36.315Z,99783.44
2023-01-29T21:54:40.848Z,99784.44
2023-01-29T21:59:43.724Z,99781.28
2023-01-29T22:04:52.173Z,99785.94
2023-01-29T22:09:56.167Z,99798.44
2023-01-29T22:14:58.786Z,99803.13
2023-01-29T22:20:01.483Z,99803.41
2023-01-29T22:25:06.467Z,99795.94
2023-01-29T22:30:10.625Z,99784.38
2023-01-29T22:35:13.336Z,99762.72
2023-01-29T22:40:17.886Z,99780.84
2023-01-29T22:45:20.695Z,99762.00
2023-01-29T22:50:23.362Z,99752.50
2023-01-29T22:55:27.419Z,99745.38
2023-01-29T23:00:30.159Z,99746.50
2023-01-29T23:05:32.838Z,99724.22
2023-01-29T23:10:36.963Z,99709.59
2023-01-29T23:15:39.745Z,99681.44
2023-01-29T23:20:44.116Z,99657.47
2023-01-29T23:26:05.755Z,99651.22
2023-01-29T23:31:08.479Z,99646.31
2023-01-29T23:36:11.298Z,99633.06
2023-01-29T23:41:15.414Z,99641.31
2023-01-29T23:46:18.104Z,99647.16
2023-01-29T23:51:20.820Z,99633.75
2023-01-29T23:56:24.997Z,99636.56
